createdAt,value
2022-10-24T00:01:34.332Z,8.50
2022-10-24T00:04:02.920Z,9.02
2022-10-24T00:06:30.262Z,9.25
2022-10-24T00:08:57.779Z,8.07
2022-10-24T00:11:28.133Z,8.27
2022-10-24T00:13:57.354Z,8.45
2022-10-24T00:16:24.652Z,8.07
2022-10-24T00:18:52.662Z,8.57
2022-10-24T00:21:20.197Z,8.23
2022-10-24T00:23:47.869Z,8.02
2022-10-24T00:26:16.819Z,8.55
2022-10-24T00:28:44.637Z,7.60
2022-10-24T00:31:15.309Z,7.82
2022-10-24T00:33:44.009Z,8.52
2022-10-24T00:36:29.754Z,7.40
2022-10-24T00:38:58.783Z,8.10
2022-10-24T00:41:33.547Z,8.35
2022-10-24T00:44:23.460Z,8.55
2022-10-24T00:46:56.823Z,7.93
2022-10-24T00:49:29.723Z,8.95
2022-10-24T00:52:03.837Z,8.65
2022-10-24T00:54:31.670Z,8.38
2022-10-24T00:57:08.138Z,8.05
2022-10-24T00:59:37.104Z,8.27
2022-10-24T01:02:04.573Z,7.88
2022-10-24T01:04:32.303Z,7.78
2022-10-24T01:07:02.762Z,8.80
2022-10-24T01:09:36.218Z,12.20
2022-10-24T01:12:34.838Z,18.23
2022-10-24T01:15:13.733Z,13.35
2022-10-24T01:18:00.454Z,13.73
2022-10-24T01:21:09.984Z,12.50
2022-10-24T01:24:32.178Z,12.93
2022-10-24T01:27:24.912Z,10.73
2022-10-24T01:30:08.787Z,10.38
2022-10-24T01:32:52.584Z,9.77
2022-10-24T01:35:36.294Z,9.95
2022-10-24T01:38:14.037Z,10.23
2022-10-24T01:41:10.452Z,10.48
2022-10-24T01:43:49.925Z,9.90
2022-10-24T01:46:22.972Z,10.32
2022-10-24T01:49:00.880Z,10.02
2022-10-24T01:51:31.489Z,10.07
2022-10-24T01:54:18.133Z,10.77
2022-10-24T01:56:45.505Z,10.95
2022-10-24T01:59:31.354Z,30.90
2022-10-24T02:02:01.163Z,19.27
2022-10-24T02:04:32.653Z,21.58
2022-10-24T02:07:04.456Z,29.88
2022-10-24T02:09:35.360Z,28.20
2022-10-24T02:12:05.820Z,19.80
2022-10-24T02:14:38.560Z,12.52
2022-10-24T02:17:07.564Z,11.50
2022-10-24T02:19:40.464Z,14.98
2022-10-24T02:22:26.938Z,14.15
2022-10-24T02:25:07.392Z,12.82
2022-10-24T02:27:40.784Z,11.73
2022-10-24T02:30:14.180Z,11.10
2022-10-24T02:32:48.842Z,9.23
2022-10-24T02:35:19.010Z,8.82
2022-10-24T02:37:51.492Z,7.97
2022-10-24T02:40:22.062Z,8.45
2022-10-24T02:43:09.601Z,8.50
2022-10-24T02:45:38.678Z,8.38
2022-10-24T02:48:10.800Z,8.40
2022-10-24T02:50:41.396Z,7.93
2022-10-24T02:53:16.426Z,8.38
2022-10-24T02:55:43.972Z,8.35
2022-10-24T02:58:11.224Z,8.25
2022-10-24T03:00:39.021Z,8.90
2022-10-24T03:03:06.637Z,8.02
2022-10-24T03:05:34.184Z,7.82
2022-10-24T03:08:01.633Z,8.25
2022-10-24T03:10:29.926Z,7.88
2022-10-24T03:13:00.120Z,9.05
2022-10-24T03:15:38.042Z,8.02
2022-10-24T03:18:05.947Z,8.27
2022-10-24T03:20:35.225Z,8.07
2022-10-24T03:23:04.871Z,8.20
2022-10-24T03:25:35.127Z,9.32
2022-10-24T03:28:02.538Z,9.82
2022-10-24T03:30:30.123Z,11.77
2022-10-24T03:32:57.336Z,12.00
2022-10-24T03:35:24.875Z,10.88
2022-10-24T03:37:52.126Z,13.45
2022-10-24T03:40:19.641Z,13.27
2022-10-24T03:42:47.219Z,9.50
2022-10-24T03:45:15.836Z,9.15
2022-10-24T03:47:43.139Z,8.82
2022-10-24T03:50:10.945Z,8.25
2022-10-24T03:52:38.760Z,8.55
2022-10-24T03:55:06.766Z,8.88
2022-10-24T03:57:34.020Z,8.70
2022-10-24T04:00:01.705Z,8.60
2022-10-24T04:02:40.204Z,9.00
2022-10-24T04:05:13.872Z,8.27
2022-10-24T04:07:45.898Z,8.20
2022-10-24T04:10:14.456Z,8.48
2022-10-24T04:12:48.115Z,9.40
2022-10-24T04:15:16.182Z,8.43
2022-10-24T04:17:43.736Z,8.05
2022-10-24T04:20:12.600Z,8.90
2022-10-24T04:22:40.099Z,8.40
2022-10-24T04:25:07.773Z,8.30
2022-10-24T04:27:37.072Z,9.02
2022-10-24T04:30:05.053Z,8.75
2022-10-24T04:32:32.308Z,8.10
2022-10-24T04:35:00.023Z,9.00
2022-10-24T04:37:27.256Z,8.30
2022-10-24T04:39:55.283Z,7.90
2022-10-24T04:42:23.855Z,8.88
2022-10-24T04:44:53.507Z,11.70
2022-10-24T04:49:53.212Z,11.55
2022-10-24T04:52:20.560Z,15.60
2022-10-24T04:54:49.192Z,12.70
2022-10-24T04:57:16.425Z,10.65
2022-10-24T04:59:44.040Z,11.50
2022-10-24T05:02:11.399Z,11.50
2022-10-24T05:04:39.238Z,13.73
2022-10-24T05:07:06.551Z,13.25
2022-10-24T05:09:34.237Z,13.55
2022-10-24T05:12:02.353Z,14.38
2022-10-24T05:14:30.005Z,13.77
2022-10-24T05:16:57.266Z,13.43
2022-10-24T05:19:24.725Z,13.38
2022-10-24T05:21:52.182Z,15.02
2022-10-24T05:24:19.863Z,13.32
2022-10-24T05:26:47.125Z,14.80
2022-10-24T05:29:14.551Z,15.20
2022-10-24T05:31:41.782Z,15.57
2022-10-24T05:34:11.432Z,14.73
2022-10-24T05:36:38.785Z,14.82
2022-10-24T05:39:06.332Z,16.10
2022-10-24T05:41:34.213Z,18.27
2022-10-24T05:44:01.925Z,23.80
2022-10-24T05:46:30.580Z,22.50
2022-10-24T05:48:59.893Z,24.15
2022-10-24T05:51:28.746Z,24.25
2022-10-24T05:54:00.265Z,25.17
2022-10-24T05:56:31.080Z,24.95
2022-10-24T05:58:58.672Z,27.10
2022-10-24T06:01:26.456Z,25.83
2022-10-24T06:03:54.513Z,26.92
2022-10-24T06:06:21.936Z,24.77
2022-10-24T06:08:49.981Z,26.73
2022-10-24T06:11:17.903Z,28.98
2022-10-24T06:13:45.604Z,27.95
2022-10-24T06:16:13.037Z,28.88
2022-10-24T06:18:41.383Z,27.38
2022-10-24T06:21:09.875Z,26.80
2022-10-24T06:23:37.777Z,25.88
2022-10-24T06:26:11.572Z,27.30
2022-10-24T06:28:39.202Z,26.83
2022-10-24T06:31:08.033Z,27.30
2022-10-24T06:33:35.754Z,27.10
2022-10-24T06:36:05.627Z,27.27
2022-10-24T06:38:33.619Z,22.63
2022-10-24T06:41:06.580Z,22.25
2022-10-24T06:43:34.275Z,35.53
2022-10-24T06:46:06.871Z,33.72
2022-10-24T06:48:35.812Z,35.60
2022-10-24T06:51:04.857Z,32.78
2022-10-24T06:53:33.439Z,35.35
2022-10-24T06:56:05.159Z,39.88
2022-10-24T06:58:33.696Z,46.10
2022-10-24T07:01:01.083Z,32.47
2022-10-24T07:03:28.823Z,37.65
2022-10-24T07:05:56.058Z,28.67
2022-10-24T07:08:23.594Z,30.92
2022-10-24T07:10:50.909Z,31.10
2022-10-24T07:13:18.414Z,32.22
2022-10-24T07:15:45.689Z,31.17
2022-10-24T07:18:16.382Z,30.63
2022-10-24T07:20:44.039Z,31.63
2022-10-24T07:23:11.839Z,35.70
2022-10-24T07:25:40.248Z,33.67
2022-10-24T07:28:09.061Z,32.22
2022-10-24T07:30:39.290Z,31.45
2022-10-24T07:33:06.944Z,23.35
2022-10-24T07:35:34.733Z,23.52
2022-10-24T07:38:02.979Z,26.90
2022-10-24T07:40:36.779Z,25.88
2022-10-24T07:43:04.931Z,27.52
2022-10-24T07:45:32.462Z,28.08
2022-10-24T07:48:00.257Z,28.75
2022-10-24T07:50:27.784Z,28.20
2022-10-24T07:52:55.871Z,29.48
2022-10-24T07:55:23.291Z,28.55
2022-10-24T07:57:50.897Z,27.75
2022-10-24T08:00:18.562Z,27.25
2022-10-24T08:02:46.351Z,27.52
2022-10-24T08:05:13.697Z,27.60
2022-10-24T08:07:41.248Z,27.58
2022-10-24T08:10:12.608Z,26.13
2022-10-24T08:12:41.143Z,25.77
2022-10-24T08:15:09.164Z,26.90
2022-10-24T08:17:36.947Z,24.40
2022-10-24T08:20:10.261Z,24.30
2022-10-24T08:22:38.119Z,17.77
2022-10-24T08:25:08.301Z,15.50
2022-10-24T08:27:36.178Z,19.70
2022-10-24T08:30:04.817Z,32.00
2022-10-24T08:32:32.449Z,31.13
2022-10-24T08:34:59.695Z,26.33
2022-10-24T08:37:27.305Z,24.58
2022-10-24T08:39:55.841Z,21.90
2022-10-24T08:42:25.350Z,21.15
2022-10-24T08:44:53.657Z,21.10
2022-10-24T08:47:34.116Z,21.17
2022-10-24T08:50:24.539Z,22.25
2022-10-24T08:53:09.226Z,24.70
2022-10-24T08:55:50.485Z,22.55
2022-10-24T08:58:37.306Z,23.77
2022-10-24T09:01:46.723Z,20.08
2022-10-24T09:04:19.565Z,22.67
2022-10-24T09:06:48.120Z,24.10
2022-10-24T09:09:26.824Z,21.90
2022-10-24T09:12:01.928Z,21.83
2022-10-24T09:14:39.090Z,21.25
2022-10-24T09:17:23.280Z,19.83
2022-10-24T09:22:29.737Z,18.17
2022-10-24T09:25:09.772Z,18.95
2022-10-24T09:27:40.635Z,17.55
2022-10-24T09:30:19.491Z,20.58
2022-10-24T09:32:47.701Z,17.33
2022-10-24T09:35:27.929Z,17.10
2022-10-24T09:37:57.618Z,16.95
2022-10-24T09:40:29.810Z,17.08
2022-10-24T09:43:27.242Z,17.20
2022-10-24T09:46:06.351Z,16.35
2022-10-24T09:48:55.334Z,16.88
2022-10-24T09:51:28.852Z,17.15
2022-10-24T09:54:06.634Z,17.50
2022-10-24T09:56:40.831Z,16.75
2022-10-24T10:01:48.124Z,14.25
2022-10-24T10:04:19.706Z,13.68
2022-10-24T10:06:50.325Z,13.73
2022-10-24T10:09:35.101Z,12.65
2022-10-24T10:12:03.192Z,13.85
2022-10-24T10:14:30.982Z,13.35
2022-10-24T10:17:05.547Z,11.93
2022-10-24T10:19:38.883Z,10.63
2022-10-24T10:22:22.459Z,11.25
2022-10-24T10:24:50.383Z,11.32
2022-10-24T10:27:32.296Z,12.57
2022-10-24T10:30:20.716Z,11.95
2022-10-24T10:33:19.327Z,11.52
2022-10-24T10:35:55.975Z,10.73
2022-10-24T10:38:37.397Z,10.00
2022-10-24T10:41:42.059Z,11.75
2022-10-24T10:47:04.539Z,10.68
2022-10-24T10:49:39.918Z,11.30
2022-10-24T10:52:13.161Z,11.05
2022-10-24T10:55:15.907Z,10.07
2022-10-24T10:58:21.397Z,9.77
2022-10-24T11:01:23.233Z,9.63
2022-10-24T11:04:16.453Z,10.23
2022-10-24T11:07:06.511Z,12.25
2022-10-24T11:09:41.259Z,13.05
2022-10-24T11:12:25.085Z,14.10
2022-10-24T11:15:04.993Z,10.88
2022-10-24T11:17:44.146Z,10.52
2022-10-24T11:20:24.075Z,11.43
2022-10-24T11:23:05.543Z,11.38
2022-10-24T11:25:52.463Z,10.57
2022-10-24T11:28:41.498Z,10.15
2022-10-24T11:31:12.616Z,9.95
2022-10-24T11:34:10.520Z,10.73
2022-10-24T11:36:45.920Z,10.63
2022-10-24T11:39:20.486Z,10.82
2022-10-24T11:41:50.644Z,10.77
2022-10-24T11:44:26.953Z,10.25
2022-10-24T11:47:06.553Z,10.23
2022-10-24T11:49:41.114Z,11.82
2022-10-24T11:52:22.889Z,11.68
2022-10-24T11:54:53.297Z,11.35
2022-10-24T11:57:26.182Z,11.60
2022-10-24T11:59:55.469Z,10.57
2022-10-24T12:02:41.424Z,12.10
2022-10-24T12:05:24.114Z,10.88
2022-10-24T12:08:06.249Z,10.18
2022-10-24T12:10:58.238Z,10.75
2022-10-24T12:14:07.077Z,10.00
2022-10-24T12:16:46.982Z,9.00
2022-10-24T12:19:18.379Z,9.85
2022-10-24T12:21:51.880Z,9.38
2022-10-24T12:24:24.823Z,9.80
2022-10-24T12:27:00.124Z,9.70
2022-10-24T12:29:28.190Z,10.57
2022-10-24T12:31:55.692Z,10.88
2022-10-24T12:34:23.250Z,9.23
2022-10-24T12:37:30.384Z,9.60
2022-10-24T12:39:58.770Z,8.75
2022-10-24T12:42:26.248Z,11.77
2022-10-24T12:44:59.725Z,49.30
2022-10-24T12:47:37.876Z,11.10
2022-10-24T12:50:23.107Z,10.20
2022-10-24T12:52:56.679Z,12.57
2022-10-24T12:55:39.434Z,10.95
2022-10-24T12:58:32.576Z,8.98
2022-10-24T13:01:29.856Z,9.40
2022-10-24T13:04:22.608Z,9.10
2022-10-24T13:07:00.794Z,9.70
2022-10-24T13:09:50.240Z,10.40
2022-10-24T13:12:37.246Z,10.35
2022-10-24T13:15:22.826Z,9.40
2022-10-24T13:18:19.521Z,9.15
2022-10-24T13:21:12.680Z,8.75
2022-10-24T13:23:50.940Z,8.63
2022-10-24T13:26:41.251Z,10.07
2022-10-24T13:29:48.182Z,9.27
2022-10-24T13:32:18.637Z,8.93
2022-10-24T13:34:52.694Z,9.60
2022-10-24T13:37:42.435Z,9.43
2022-10-24T13:40:21.640Z,10.38
2022-10-24T13:42:51.463Z,10.23
2022-10-24T13:45:18.695Z,9.05
2022-10-24T13:47:53.932Z,10.25
2022-10-24T13:50:23.734Z,9.13
2022-10-24T13:52:57.785Z,10.07
2022-10-24T13:55:47.966Z,10.00
2022-10-24T13:58:27.870Z,10.13
2022-10-24T14:01:03.205Z,9.70
2022-10-24T14:03:33.973Z,9.25
2022-10-24T14:06:05.733Z,9.85
2022-10-24T14:08:36.143Z,10.13
2022-10-24T14:11:09.323Z,10.93
2022-10-24T14:13:42.797Z,11.05
2022-10-24T14:16:11.101Z,10.02
2022-10-24T14:18:39.571Z,11.05
2022-10-24T14:21:22.761Z,10.30
2022-10-24T14:24:15.673Z,11.85
2022-10-24T14:26:45.693Z,12.77
2022-10-24T14:29:32.559Z,12.98
2022-10-24T14:32:10.151Z,11.23
2022-10-24T14:34:39.430Z,12.40
2022-10-24T14:37:16.870Z,12.45
2022-10-24T14:39:44.567Z,13.20
2022-10-24T14:42:18.588Z,13.10
2022-10-24T14:44:47.378Z,12.25
2022-10-24T14:47:22.904Z,11.85
2022-10-24T14:49:50.945Z,14.63
2022-10-24T14:52:39.100Z,15.45
2022-10-24T14:55:18.297Z,13.60
2022-10-24T14:57:51.334Z,13.75
2022-10-24T15:00:22.455Z,15.05
2022-10-24T15:02:51.728Z,16.27
2022-10-24T15:05:25.146Z,16.25
2022-10-24T15:08:21.178Z,18.45
2022-10-24T15:11:00.695Z,18.15
2022-10-24T15:13:32.487Z,20.60
2022-10-24T15:16:01.649Z,25.45
2022-10-24T15:18:41.329Z,22.52
2022-10-24T15:21:19.260Z,20.52
2022-10-24T15:23:55.682Z,19.02
2022-10-24T15:26:25.270Z,18.65
2022-10-24T15:29:14.330Z,20.38
2022-10-24T15:31:44.556Z,19.77
2022-10-24T15:34:18.079Z,18.80
2022-10-24T15:36:54.366Z,23.67
2022-10-24T15:39:27.010Z,27.05
2022-10-24T15:44:33.672Z,29.65
2022-10-24T15:47:01.398Z,34.45
2022-10-24T15:49:29.112Z,35.92
2022-10-24T15:52:01.509Z,38.78
2022-10-24T15:54:29.401Z,28.45
2022-10-24T15:56:59.380Z,26.85
2022-10-24T15:59:27.768Z,26.60
2022-10-24T16:02:00.337Z,26.33
2022-10-24T16:04:28.559Z,26.52
2022-10-24T16:06:56.165Z,25.52
2022-10-24T16:09:40.952Z,24.35
2022-10-24T16:12:15.685Z,22.60
2022-10-24T16:14:47.156Z,23.17
2022-10-24T16:17:18.172Z,24.27
2022-10-24T16:19:50.453Z,26.75
2022-10-24T16:22:18.006Z,28.60
2022-10-24T16:24:45.437Z,25.25
2022-10-24T16:27:12.955Z,20.42
2022-10-24T16:29:40.204Z,21.30
2022-10-24T16:32:07.804Z,20.08
2022-10-24T16:34:35.067Z,23.70
2022-10-24T16:37:05.108Z,26.73
2022-10-24T16:39:33.950Z,32.25
2022-10-24T16:42:04.816Z,30.30
2022-10-24T16:44:37.543Z,19.27
2022-10-24T16:47:10.154Z,20.00
2022-10-24T16:49:41.677Z,23.92
2022-10-24T16:52:10.394Z,25.20
2022-10-24T16:54:44.900Z,22.13
2022-10-24T16:57:13.039Z,27.98
2022-10-24T16:59:42.220Z,27.10
2022-10-24T17:02:17.262Z,27.35
2022-10-24T17:04:57.933Z,27.52
2022-10-24T17:07:29.641Z,28.58
2022-10-24T17:10:03.148Z,21.38
2022-10-24T17:12:35.248Z,21.10
2022-10-24T17:17:41.738Z,22.90
2022-10-24T17:20:16.262Z,24.42
2022-10-24T17:23:16.826Z,20.33
2022-10-24T17:25:50.992Z,23.80
2022-10-24T17:28:34.824Z,24.08
2022-10-24T17:31:04.386Z,19.65
2022-10-24T17:33:37.215Z,18.65
2022-10-24T17:36:16.430Z,19.02
2022-10-24T17:39:13.138Z,20.10
2022-10-24T17:41:46.034Z,20.85
2022-10-24T17:44:19.944Z,24.40
2022-10-24T17:46:54.522Z,24.25
2022-10-24T17:49:29.991Z,18.15
2022-10-24T17:54:37.173Z,32.47
2022-10-24T17:57:08.253Z,25.70
2022-10-24T17:59:38.884Z,25.45
2022-10-24T18:02:21.359Z,21.23
2022-10-24T18:04:56.028Z,20.40
2022-10-24T18:07:25.579Z,15.90
2022-10-24T18:10:02.149Z,21.27
2022-10-24T18:12:37.337Z,24.13
2022-10-24T18:15:14.327Z,20.30
2022-10-24T18:17:53.176Z,22.38
2022-10-24T18:20:23.021Z,25.92
2022-10-24T18:22:54.941Z,18.85
2022-10-24T18:25:30.798Z,19.55
2022-10-24T18:28:03.543Z,18.15
2022-10-24T18:30:38.431Z,17.88
2022-10-24T18:33:08.631Z,18.30
2022-10-24T18:35:38.807Z,18.65
2022-10-24T18:38:12.075Z,17.73
2022-10-24T18:41:20.737Z,19.55
2022-10-24T18:44:38.539Z,19.00
2022-10-24T18:47:16.344Z,19.55
2022-10-24T18:49:44.785Z,21.92
2022-10-24T18:53:02.006Z,20.90
2022-10-24T18:55:35.268Z,26.98
2022-10-24T18:58:17.333Z,20.88
2022-10-24T19:00:47.837Z,29.73
2022-10-24T19:09:53.156Z,32.33
2022-10-24T19:17:01.591Z,27.60
2022-10-24T19:19:39.157Z,24.65
2022-10-24T19:22:37.318Z,22.65
2022-10-24T19:25:31.868Z,24.45
2022-10-24T19:28:00.931Z,23.77
2022-10-24T19:30:34.231Z,23.13
2022-10-24T19:33:06.090Z,26.23
2022-10-24T19:35:41.899Z,39.78
2022-10-24T19:38:15.373Z,40.50
2022-10-24T19:41:59.094Z,35.95
2022-10-24T19:44:56.487Z,27.42
2022-10-24T19:47:28.149Z,30.00
2022-10-24T19:49:59.744Z,28.60
2022-10-24T19:52:53.429Z,28.20
2022-10-24T19:57:55.568Z,25.40
2022-10-24T20:00:33.485Z,25.23
2022-10-24T20:03:02.966Z,25.30
2022-10-24T20:05:33.232Z,25.85
2022-10-24T20:08:07.516Z,30.92
2022-10-24T20:11:00.511Z,25.98
2022-10-24T20:13:34.901Z,26.45
2022-10-24T20:16:16.570Z,25.77
2022-10-24T20:18:50.643Z,22.48
2022-10-24T20:21:20.265Z,26.45
2022-10-24T20:23:53.923Z,25.38
2022-10-24T20:26:25.805Z,21.90
2022-10-24T20:33:28.249Z,22.45
2022-10-24T20:36:21.788Z,19.67
2022-10-24T20:38:51.481Z,18.58
2022-10-24T20:41:26.091Z,18.58
2022-10-24T20:44:02.628Z,21.20
2022-10-24T20:46:59.089Z,20.10
2022-10-24T20:49:55.478Z,19.83
2022-10-24T20:52:26.030Z,18.80
2022-10-24T20:55:07.707Z,17.65
2022-10-24T20:57:51.381Z,18.45
2022-10-24T21:00:22.970Z,18.17
2022-10-24T21:03:17.154Z,15.77
2022-10-24T21:05:46.915Z,16.15
2022-10-24T21:08:20.365Z,21.58
2022-10-24T21:11:00.010Z,19.02
2022-10-24T21:13:35.639Z,19.77
2022-10-24T21:16:29.485Z,17.00
2022-10-24T21:18:59.980Z,19.90
2022-10-24T21:21:30.584Z,21.42
2022-10-24T21:24:10.548Z,17.70
2022-10-24T21:26:44.629Z,18.58
2022-10-24T21:29:32.351Z,17.87
2022-10-24T21:32:05.031Z,20.83
2022-10-24T21:34:37.735Z,19.48
2022-10-24T21:37:06.722Z,20.73
2022-10-24T21:39:41.828Z,19.67
2022-10-24T21:44:42.547Z,21.40
2022-10-24T21:47:11.252Z,21.55
2022-10-24T21:50:29.013Z,21.55
2022-10-24T21:53:00.541Z,21.73
2022-10-24T21:55:43.775Z,24.55
2022-10-24T21:58:15.761Z,26.10
2022-10-24T22:00:43.546Z,24.00
2022-10-24T22:03:12.550Z,22.00
2022-10-24T22:05:54.684Z,22.35
2022-10-24T22:08:29.004Z,23.50
2022-10-24T22:11:11.004Z,22.67
2022-10-24T22:13:41.419Z,23.45
2022-10-24T22:16:10.707Z,23.33
2022-10-24T22:18:52.476Z,23.10
2022-10-24T22:21:29.254Z,24.75
2022-10-24T22:24:03.263Z,23.17
2022-10-24T22:26:56.257Z,25.30
2022-10-24T22:29:24.969Z,26.98
2022-10-24T22:31:53.364Z,19.40
2022-10-24T22:34:25.281Z,23.25
2022-10-24T22:37:01.144Z,26.98
2022-10-24T22:39:33.243Z,25.00
2022-10-24T22:42:14.692Z,25.77
2022-10-24T22:47:34.732Z,21.08
2022-10-24T22:50:21.990Z,22.90
2022-10-24T22:52:56.568Z,22.27
2022-10-24T22:55:37.664Z,18.55
2022-10-24T22:58:06.820Z,25.00
2022-10-24T23:00:38.086Z,25.25
2022-10-24T23:03:33.000Z,25.73
2022-10-24T23:06:13.321Z,28.02
2022-10-24T23:08:47.745Z,22.17
2022-10-24T23:11:24.508Z,21.50
2022-10-24T23:13:53.211Z,57.22
2022-10-24T23:16:46.066Z,26.15
2022-10-24T23:19:26.239Z,25.73
2022-10-24T23:22:18.523Z,21.35
2022-10-24T23:24:47.171Z,20.88
2022-10-24T23:27:29.978Z,20.58
2022-10-24T23:29:59.165Z,20.10
2022-10-24T23:32:32.556Z,21.15
2022-10-24T23:35:01.603Z,23.33
2022-10-24T23:37:48.070Z,25.00
2022-10-24T23:40:32.456Z,24.80
2022-10-24T23:43:02.236Z,24.83
2022-10-24T23:45:37.717Z,22.95
2022-10-24T23:48:50.336Z,23.57
2022-10-24T23:51:27.870Z,21.30
2022-10-24T23:53:58.819Z,23.10
2022-10-24T23:56:28.687Z,22.88
2022-10-24T23:59:02.210Z,23.58
